createdAt,value
2018-02-27T00:00:25.630Z,-7.90
2018-02-27T00:02:53.379Z,-7.90
2018-02-27T00:05:20.968Z,-7.80
2018-02-27T00:07:48.539Z,-7.90
2018-02-27T00:10:17.051Z,-7.80
2018-02-27T00:12:44.692Z,-7.80
2018-02-27T00:15:13.051Z,-8.00
2018-02-27T00:17:41.429Z,-7.90
2018-02-27T00:20:09.862Z,-7.80
2018-02-27T00:22:39.153Z,-7.90
2018-02-27T00:25:06.800Z,-8.00
2018-02-27T00:27:34.430Z,-8.10
2018-02-27T00:30:02.756Z,-8.00
2018-02-27T00:32:30.362Z,-8.00
2018-02-27T00:34:58.731Z,-7.90
2018-02-27T00:37:26.299Z,-7.90
2018-02-27T00:39:54.782Z,-8.10
2018-02-27T00:42:23.327Z,-8.00
2018-02-27T00:44:50.894Z,-8.10
2018-02-27T00:47:18.488Z,-8.10
2018-02-27T00:49:47.019Z,-8.20
2018-02-27T00:52:14.610Z,-8.20
2018-02-27T00:54:42.170Z,-8.20
2018-02-27T00:57:09.763Z,-8.20
2018-02-27T00:59:37.362Z,-8.10
2018-02-27T01:02:04.923Z,-8.10
2018-02-27T01:04:32.534Z,-8.10
2018-02-27T01:07:00.099Z,-8.20
2018-02-27T01:09:27.656Z,-8.20
2018-02-27T01:11:55.266Z,-8.20
2018-02-27T01:14:22.839Z,-8.30
2018-02-27T01:16:50.439Z,-8.40
2018-02-27T01:19:18.003Z,-8.30
2018-02-27T01:21:45.589Z,-8.30
2018-02-27T01:24:13.140Z,-8.40
2018-02-27T01:26:40.734Z,-8.40
2018-02-27T01:29:09.108Z,-8.30
2018-02-27T01:31:37.490Z,-8.30
2018-02-27T01:34:05.074Z,-8.40
2018-02-27T01:36:32.646Z,-8.40
2018-02-27T01:39:00.233Z,-8.40
2018-02-27T01:41:27.803Z,-8.40
2018-02-27T01:43:55.394Z,-8.40
2018-02-27T01:46:23.724Z,-8.50
2018-02-27T01:48:51.349Z,-8.50
2018-02-27T01:51:19.034Z,-8.50
2018-02-27T01:53:46.747Z,-8.60
2018-02-27T01:56:15.255Z,-8.50
2018-02-27T01:58:42.822Z,-8.50
2018-02-27T02:01:10.410Z,-8.50
2018-02-27T02:03:37.966Z,-8.50
2018-02-27T02:06:05.564Z,-8.50
2018-02-27T02:08:34.086Z,-8.40
2018-02-27T02:11:01.790Z,-8.40
2018-02-27T02:13:29.348Z,-8.50
2018-02-27T02:15:56.915Z,-8.50
2018-02-27T02:18:24.530Z,-8.50
2018-02-27T02:20:52.092Z,-8.60
2018-02-27T02:23:19.699Z,-8.50
2018-02-27T02:25:48.050Z,-8.50
2018-02-27T02:28:15.646Z,-8.60
2018-02-27T02:30:44.126Z,-8.60
2018-02-27T02:33:12.459Z,-8.60
2018-02-27T02:35:40.243Z,-8.70
2018-02-27T02:38:07.854Z,-8.60
2018-02-27T02:40:35.447Z,-8.70
2018-02-27T02:43:03.032Z,-8.70
2018-02-27T02:45:31.358Z,-8.70
2018-02-27T02:47:58.942Z,-8.80
2018-02-27T02:50:26.518Z,-8.70
2018-02-27T02:52:54.875Z,-8.80
2018-02-27T02:55:22.502Z,-8.80
2018-02-27T02:57:50.123Z,-8.70
2018-02-27T03:00:18.478Z,-8.80
2018-02-27T03:02:46.072Z,-8.80
2018-02-27T03:05:14.472Z,-8.80
2018-02-27T03:07:42.046Z,-8.80
2018-02-27T03:10:09.639Z,-8.90
2018-02-27T03:12:37.326Z,-8.80
2018-02-27T03:15:05.711Z,-9.00
2018-02-27T03:17:33.410Z,-9.00
2018-02-27T03:20:00.980Z,-8.90
2018-02-27T03:22:28.640Z,-8.80
2018-02-27T03:24:56.211Z,-8.70
2018-02-27T03:27:23.798Z,-8.90
2018-02-27T03:29:52.364Z,-8.90
2018-02-27T03:32:19.923Z,-8.90
2018-02-27T03:34:48.336Z,-8.80
2018-02-27T03:37:15.932Z,-8.90
2018-02-27T03:39:43.508Z,-9.00
2018-02-27T03:42:11.256Z,-9.10
2018-02-27T03:44:38.826Z,-9.00
2018-02-27T03:47:06.483Z,-9.10
2018-02-27T03:49:34.135Z,-9.10
2018-02-27T03:52:01.903Z,-9.00
2018-02-27T03:54:29.483Z,-9.00
2018-02-27T03:56:57.106Z,-9.00
2018-02-27T03:59:24.698Z,-9.00
2018-02-27T04:01:52.255Z,-9.10
2018-02-27T04:04:19.851Z,-9.00
2018-02-27T04:06:47.415Z,-9.00
2018-02-27T04:09:15.046Z,-9.00
2018-02-27T04:11:43.602Z,-9.00
2018-02-27T04:14:11.166Z,-9.10
2018-02-27T04:16:38.788Z,-9.10
2018-02-27T04:19:07.078Z,-9.00
2018-02-27T04:21:34.778Z,-9.00
2018-02-27T04:24:03.111Z,-9.10
2018-02-27T04:26:30.691Z,-9.10
2018-02-27T04:28:58.255Z,-9.10
2018-02-27T04:31:25.835Z,-9.10
2018-02-27T04:33:54.191Z,-9.10
2018-02-27T04:36:21.770Z,-9.20
2018-02-27T04:38:50.118Z,-9.20
2018-02-27T04:41:17.795Z,-9.20
2018-02-27T04:43:45.383Z,-9.20
2018-02-27T04:46:12.929Z,-9.10
2018-02-27T04:48:41.380Z,-9.10
2018-02-27T04:51:09.152Z,-9.10
2018-02-27T04:53:36.730Z,-9.20
2018-02-27T04:56:05.058Z,-9.10
2018-02-27T04:58:32.743Z,-9.20
2018-02-27T05:01:00.302Z,-9.20
2018-02-27T05:03:27.902Z,-9.30
2018-02-27T05:05:55.502Z,-9.20
2018-02-27T05:08:23.126Z,-9.20
2018-02-27T05:10:50.698Z,-9.20
2018-02-27T05:13:18.287Z,-9.30
2018-02-27T05:15:45.914Z,-9.20
2018-02-27T05:18:13.567Z,-9.30
2018-02-27T05:20:41.134Z,-9.30
2018-02-27T05:23:08.746Z,-9.30
2018-02-27T05:25:36.302Z,-9.30
2018-02-27T05:28:03.866Z,-9.40
2018-02-27T05:30:32.219Z,-9.40
2018-02-27T05:32:59.855Z,-9.40
2018-02-27T05:35:27.446Z,-9.50
2018-02-27T05:37:55.024Z,-9.40
2018-02-27T05:40:23.461Z,-9.30
2018-02-27T05:42:51.046Z,-9.30
2018-02-27T05:45:18.603Z,-9.40
2018-02-27T05:47:46.374Z,-9.40
2018-02-27T05:50:13.987Z,-9.30
2018-02-27T05:52:41.689Z,-9.50
2018-02-27T05:55:09.447Z,-9.50
2018-02-27T05:57:37.051Z,-9.50
2018-02-27T06:00:04.640Z,-9.50
2018-02-27T06:02:32.255Z,-9.50
2018-02-27T06:05:00.690Z,-9.40
2018-02-27T06:07:29.775Z,-9.40
2018-02-27T06:09:57.380Z,-9.30
2018-02-27T06:12:25.702Z,-9.40
2018-02-27T06:14:53.299Z,-9.40
2018-02-27T06:17:20.902Z,-9.50
2018-02-27T06:19:48.506Z,-9.40
2018-02-27T06:22:16.106Z,-9.40
2018-02-27T06:24:43.745Z,-9.40
2018-02-27T06:27:12.135Z,-9.40
2018-02-27T06:29:40.464Z,-9.40
2018-02-27T06:32:08.075Z,-9.40
2018-02-27T06:34:35.710Z,-9.20
2018-02-27T06:37:03.267Z,-9.30
2018-02-27T06:39:30.875Z,-9.40
2018-02-27T06:41:58.450Z,-9.40
2018-02-27T06:44:26.051Z,-9.20
2018-02-27T06:46:54.403Z,-9.30
2018-02-27T06:49:21.970Z,-9.30
2018-02-27T06:51:49.592Z,-9.20
2018-02-27T06:54:17.158Z,-9.00
2018-02-27T06:56:44.754Z,-8.90
2018-02-27T06:59:12.366Z,-9.00
2018-02-27T07:01:39.935Z,-9.00
2018-02-27T07:04:07.510Z,-8.80
2018-02-27T07:06:35.147Z,-8.90
2018-02-27T07:09:02.737Z,-8.90
2018-02-27T07:11:30.361Z,-8.80
2018-02-27T07:13:57.925Z,-8.60
2018-02-27T07:16:25.522Z,-8.30
2018-02-27T07:18:53.076Z,-8.30
2018-02-27T07:21:20.907Z,-8.20
2018-02-27T07:23:48.478Z,-8.60
2018-02-27T07:26:16.075Z,-8.70
2018-02-27T07:28:43.634Z,-8.70
2018-02-27T07:31:11.998Z,-8.70
2018-02-27T07:33:39.697Z,-8.70
2018-02-27T07:36:07.358Z,-8.80
2018-02-27T07:38:35.043Z,-8.90
2018-02-27T07:41:02.807Z,-8.80
2018-02-27T07:43:30.374Z,-8.80
2018-02-27T07:45:57.983Z,-9.00
2018-02-27T07:48:26.340Z,-8.60
2018-02-27T07:50:53.936Z,-8.60
2018-02-27T07:53:21.503Z,-8.70
2018-02-27T07:55:49.095Z,-8.50
2018-02-27T07:58:16.659Z,-8.70
2018-02-27T08:00:44.238Z,-8.60
2018-02-27T08:03:11.829Z,-8.60
2018-02-27T08:05:39.399Z,-8.80
2018-02-27T08:08:07.058Z,-8.60
2018-02-27T08:10:34.626Z,-8.90
2018-02-27T08:13:02.214Z,-8.60
2018-02-27T08:15:29.797Z,-8.80
2018-02-27T08:17:58.242Z,-8.80
2018-02-27T08:20:25.806Z,-8.90
2018-02-27T08:22:53.376Z,-8.70
2018-02-27T08:25:20.974Z,-8.50
2018-02-27T08:27:49.338Z,-8.60
2018-02-27T08:30:17.733Z,-8.60
2018-02-27T08:32:45.295Z,-8.60
2018-02-27T08:35:12.906Z,-8.40
2018-02-27T08:37:40.532Z,-8.40
2018-02-27T08:40:08.894Z,-8.70
2018-02-27T08:42:36.634Z,-8.70
2018-02-27T08:45:04.990Z,-8.50
2018-02-27T08:47:32.898Z,-8.50
2018-02-27T08:50:00.468Z,-8.30
2018-02-27T08:52:28.080Z,-8.30
2018-02-27T08:54:55.655Z,-8.30
2018-02-27T08:57:24.095Z,-8.30
2018-02-27T08:59:51.670Z,-8.30
2018-02-27T09:02:19.279Z,-8.60
2018-02-27T09:04:46.843Z,-8.30
2018-02-27T09:07:14.406Z,-8.10
2018-02-27T09:09:41.999Z,-8.50
2018-02-27T09:12:09.574Z,-8.40
2018-02-27T09:14:37.171Z,-8.20
2018-02-27T09:17:04.728Z,-8.10
2018-02-27T09:19:32.326Z,-7.70
2018-02-27T09:21:59.903Z,-8.20
2018-02-27T09:24:27.489Z,-8.20
2018-02-27T09:26:55.091Z,-8.40
2018-02-27T09:29:22.702Z,-8.30
2018-02-27T09:31:51.263Z,-8.10
2018-02-27T09:34:18.819Z,-8.10
2018-02-27T09:36:46.410Z,-8.10
2018-02-27T09:39:13.988Z,-7.90
2018-02-27T09:41:41.587Z,-7.70
2018-02-27T09:44:09.155Z,-7.70
2018-02-27T09:46:36.715Z,-7.70
2018-02-27T09:49:04.307Z,-7.50
2018-02-27T09:51:31.874Z,-7.50
2018-02-27T09:53:59.480Z,-7.50
2018-02-27T09:56:27.066Z,-7.30
2018-02-27T09:58:54.654Z,-6.80
2018-02-27T10:01:22.225Z,-6.20
2018-02-27T10:03:49.803Z,-6.70
2018-02-27T10:06:17.429Z,-6.90
2018-02-27T10:08:45.732Z,-6.90
2018-02-27T10:11:13.322Z,-6.90
2018-02-27T10:13:41.012Z,-6.60
2018-02-27T10:16:08.644Z,-6.00
2018-02-27T10:18:36.320Z,-5.50
2018-02-27T10:21:04.666Z,-5.20
2018-02-27T10:23:32.269Z,-5.20
2018-02-27T10:25:59.882Z,-5.00
2018-02-27T10:28:27.491Z,-4.90
2018-02-27T10:30:55.058Z,-6.00
2018-02-27T10:33:22.663Z,-6.50
2018-02-27T10:35:50.363Z,-6.80
2018-02-27T10:38:17.931Z,-7.00
2018-02-27T10:40:45.523Z,-7.20
2018-02-27T10:43:13.082Z,-6.80
2018-02-27T10:45:40.692Z,-6.40
2018-02-27T10:48:09.039Z,-6.60
2018-02-27T10:50:36.636Z,-6.60
2018-02-27T10:53:04.213Z,-6.20
2018-02-27T10:55:31.881Z,-6.40
2018-02-27T10:57:59.455Z,-6.40
2018-02-27T11:00:32.834Z,-6.40
2018-02-27T11:03:00.524Z,-6.90
2018-02-27T11:05:28.145Z,-7.00
2018-02-27T11:07:55.726Z,-6.70
2018-02-27T11:10:23.304Z,-6.80
2018-02-27T11:12:50.922Z,-6.60
2018-02-27T11:15:18.496Z,-5.70
2018-02-27T11:17:46.114Z,-5.50
2018-02-27T11:20:14.442Z,-4.90
2018-02-27T11:22:42.085Z,-4.90
2018-02-27T11:25:09.715Z,-5.20
2018-02-27T11:27:38.076Z,-4.70
2018-02-27T11:30:05.823Z,-4.80
2018-02-27T11:32:33.394Z,-4.10
2018-02-27T11:35:01.907Z,-3.90
2018-02-27T11:37:29.471Z,-4.00
2018-02-27T11:39:57.036Z,-4.60
2018-02-27T11:42:24.614Z,-5.90
2018-02-27T11:44:52.176Z,-6.10
2018-02-27T11:47:19.822Z,-5.80
2018-02-27T11:49:47.395Z,-6.10
2018-02-27T11:52:15.097Z,-6.40
2018-02-27T11:54:43.421Z,-6.20
2018-02-27T11:57:11.033Z,-6.30
2018-02-27T11:59:39.421Z,-6.30
2018-02-27T12:02:07.759Z,-6.10
2018-02-27T12:04:35.335Z,-6.20
2018-02-27T12:07:02.926Z,-5.90
2018-02-27T12:09:30.514Z,-5.80
2018-02-27T12:11:58.131Z,-5.10
2018-02-27T12:14:26.500Z,-4.90
2018-02-27T12:16:54.858Z,-3.70
2018-02-27T12:19:22.426Z,-3.70
2018-02-27T12:21:50.051Z,-4.10
2018-02-27T12:24:17.607Z,-4.00
2018-02-27T12:26:45.208Z,-4.20
2018-02-27T12:29:13.606Z,-3.60
2018-02-27T12:31:41.174Z,-3.60
2018-02-27T12:34:08.775Z,-3.40
2018-02-27T12:36:36.474Z,-3.90
2018-02-27T12:39:04.872Z,-5.40
2018-02-27T12:41:32.659Z,-5.40
2018-02-27T12:44:00.254Z,-5.30
2018-02-27T12:46:27.974Z,-5.50
2018-02-27T12:48:55.562Z,-5.50
2018-02-27T12:51:23.155Z,-5.60
2018-02-27T12:53:51.546Z,-5.40
2018-02-27T12:56:19.126Z,-5.40
2018-02-27T12:58:46.722Z,-5.70
2018-02-27T13:01:14.369Z,-6.00
2018-02-27T13:03:41.975Z,-5.90
2018-02-27T13:06:09.573Z,-5.70
2018-02-27T13:08:37.179Z,-5.80
2018-02-27T13:11:05.177Z,-5.60
2018-02-27T13:13:32.774Z,-5.70
2018-02-27T13:16:00.386Z,-5.50
2018-02-27T13:18:28.894Z,-5.80
2018-02-27T13:20:56.503Z,-5.90
2018-02-27T13:23:24.231Z,-5.40
2018-02-27T13:25:51.878Z,-5.30
2018-02-27T13:28:19.435Z,-5.40
2018-02-27T13:30:47.022Z,-5.80
2018-02-27T13:33:14.716Z,-5.80
2018-02-27T13:35:43.050Z,-5.80
2018-02-27T13:38:10.688Z,-5.80
2018-02-27T13:40:38.266Z,-5.60
2018-02-27T13:43:05.861Z,-4.80
2018-02-27T13:45:34.200Z,-3.80
2018-02-27T13:48:01.812Z,-3.80
2018-02-27T13:50:30.147Z,-5.50
2018-02-27T13:52:57.829Z,-5.50
2018-02-27T13:55:25.387Z,-5.70
2018-02-27T13:57:52.966Z,-5.00
2018-02-27T14:00:21.484Z,-4.80
2018-02-27T14:02:49.066Z,-4.90
2018-02-27T14:05:16.654Z,-5.30
2018-02-27T14:07:45.000Z,-4.30
2018-02-27T14:10:12.599Z,-4.40
2018-02-27T14:12:40.971Z,-4.70
2018-02-27T14:15:09.389Z,-4.90
2018-02-27T14:17:37.119Z,-4.90
2018-02-27T14:20:05.455Z,-4.70
2018-02-27T14:22:33.058Z,-4.70
2018-02-27T14:25:01.395Z,-5.20
2018-02-27T14:27:28.994Z,-5.20
2018-02-27T14:29:57.331Z,-5.40
2018-02-27T14:32:24.935Z,-5.40
2018-02-27T14:34:52.579Z,-5.30
2018-02-27T14:37:20.938Z,-5.40
2018-02-27T14:39:48.553Z,-5.50
2018-02-27T14:42:16.130Z,-5.50
2018-02-27T14:44:43.735Z,-5.40
2018-02-27T14:47:12.081Z,-5.40
2018-02-27T14:49:39.714Z,-5.40
2018-02-27T14:52:07.274Z,-5.30
2018-02-27T14:54:34.900Z,-5.20
2018-02-27T14:57:02.483Z,-5.30
2018-02-27T14:59:30.087Z,-5.20
2018-02-27T15:01:59.356Z,-5.40
2018-02-27T15:04:26.964Z,-5.40
2018-02-27T15:06:55.295Z,-5.10
2018-02-27T15:09:23.057Z,-5.10
2018-02-27T15:11:50.619Z,-5.40
2018-02-27T15:14:18.191Z,-5.40
2018-02-27T15:16:45.791Z,-5.60
2018-02-27T15:19:14.374Z,-5.70
2018-02-27T15:21:42.071Z,-5.80
2018-02-27T15:24:09.759Z,-5.60
2018-02-27T15:26:37.349Z,-5.80
2018-02-27T15:29:05.836Z,-5.60
2018-02-27T15:31:33.444Z,-5.60
2018-02-27T15:34:01.030Z,-5.80
2018-02-27T15:36:28.646Z,-5.70
2018-02-27T15:38:56.245Z,-5.80
2018-02-27T15:41:23.848Z,-5.80
2018-02-27T15:43:51.416Z,-5.70
2018-02-27T15:46:19.030Z,-5.40
2018-02-27T15:48:47.380Z,-5.80
2018-02-27T15:51:14.991Z,-5.80
2018-02-27T15:53:42.555Z,-5.50
2018-02-27T15:56:10.135Z,-5.70
2018-02-27T15:58:37.735Z,-5.60
2018-02-27T16:01:05.326Z,-5.60
2018-02-27T16:03:32.923Z,-5.80
2018-02-27T16:06:01.443Z,-5.80
2018-02-27T16:08:29.835Z,-5.80
2018-02-27T16:10:57.407Z,-5.80
2018-02-27T16:13:25.002Z,-5.80
2018-02-27T16:15:52.666Z,-5.90
2018-02-27T16:18:20.250Z,-5.80
2018-02-27T16:20:47.806Z,-5.90
2018-02-27T16:23:15.387Z,-5.80
2018-02-27T16:25:42.990Z,-5.90
2018-02-27T16:28:10.564Z,-6.00
2018-02-27T16:30:38.182Z,-5.90
2018-02-27T16:33:05.773Z,-5.90
2018-02-27T16:35:33.435Z,-5.90
2018-02-27T16:38:01.022Z,-6.00
2018-02-27T16:40:28.768Z,-6.00
2018-02-27T16:42:56.382Z,-6.10
2018-02-27T16:45:23.958Z,-6.10
2018-02-27T16:47:51.586Z,-6.10
2018-02-27T16:50:19.916Z,-6.00
2018-02-27T16:52:47.539Z,-6.00
2018-02-27T16:55:15.164Z,-6.10
2018-02-27T16:57:43.576Z,-6.10
2018-02-27T17:00:11.147Z,-6.10
2018-02-27T17:02:38.759Z,-6.00
2018-02-27T17:05:06.520Z,-6.10
2018-02-27T17:07:34.095Z,-6.10
2018-02-27T17:10:02.567Z,-6.20
2018-02-27T17:12:30.979Z,-6.20
2018-02-27T17:14:58.601Z,-6.20
2018-02-27T17:17:26.178Z,-6.10
2018-02-27T17:19:54.550Z,-6.10
2018-02-27T17:22:22.884Z,-6.10
2018-02-27T17:24:50.455Z,-6.20
2018-02-27T17:27:18.054Z,-6.20
2018-02-27T17:29:45.621Z,-6.10
2018-02-27T17:32:13.215Z,-6.20
2018-02-27T17:34:40.852Z,-6.10
2018-02-27T17:37:08.431Z,-6.20
2018-02-27T17:39:36.116Z,-6.30
2018-02-27T17:42:03.758Z,-6.30
2018-02-27T17:44:31.355Z,-6.30
2018-02-27T17:46:59.715Z,-6.30
2018-02-27T17:49:27.323Z,-6.20
2018-02-27T17:51:54.878Z,-6.30
2018-02-27T17:54:22.490Z,-6.20
2018-02-27T17:56:50.090Z,-6.20
2018-02-27T17:59:17.668Z,-6.30
2018-02-27T18:01:45.280Z,-6.20
2018-02-27T18:04:13.646Z,-6.40
2018-02-27T18:06:41.215Z,-6.40
2018-02-27T18:09:09.587Z,-6.40
2018-02-27T18:11:37.184Z,-6.40
2018-02-27T18:14:04.764Z,-6.30
2018-02-27T18:16:32.354Z,-6.30
2018-02-27T18:18:59.934Z,-6.30
2018-02-27T18:21:28.295Z,-6.30
2018-02-27T18:23:55.868Z,-6.30
2018-02-27T18:26:24.286Z,-6.30
2018-02-27T18:28:52.078Z,-6.30
2018-02-27T18:31:19.647Z,-6.40
2018-02-27T18:33:47.267Z,-6.40
2018-02-27T18:36:14.857Z,-6.40
2018-02-27T18:38:42.470Z,-6.40
2018-02-27T18:41:10.059Z,-6.40
2018-02-27T18:43:37.683Z,-6.50
2018-02-27T18:46:05.374Z,-6.40
2018-02-27T18:48:32.964Z,-6.40
2018-02-27T18:51:00.566Z,-6.40
2018-02-27T18:53:28.154Z,-6.40
2018-02-27T18:55:55.858Z,-6.40
2018-02-27T18:58:24.195Z,-6.40
2018-02-27T19:00:51.815Z,-6.40
2018-02-27T19:03:19.407Z,-6.40
2018-02-27T19:05:47.026Z,-6.40
2018-02-27T19:08:15.387Z,-6.40
2018-02-27T19:10:42.975Z,-6.40
2018-02-27T19:13:10.577Z,-6.40
2018-02-27T19:15:38.152Z,-6.40
2018-02-27T19:18:05.779Z,-6.40
2018-02-27T19:20:33.326Z,-6.50
2018-02-27T19:23:00.926Z,-6.50
2018-02-27T19:25:28.522Z,-6.60
2018-02-27T19:27:56.894Z,-6.70
2018-02-27T19:30:25.238Z,-6.60
2018-02-27T19:32:52.838Z,-6.60
2018-02-27T19:35:20.483Z,-6.90
2018-02-27T19:37:48.861Z,-6.90
2018-02-27T19:40:17.298Z,-7.00
2018-02-27T19:42:44.950Z,-7.00
2018-02-27T19:45:12.567Z,-7.00
2018-02-27T19:47:40.932Z,-6.80
2018-02-27T19:50:09.292Z,-6.70
2018-02-27T19:52:36.861Z,-6.70
2018-02-27T19:55:04.475Z,-6.80
2018-02-27T19:57:32.200Z,-6.90
2018-02-27T20:00:00.675Z,-6.90
2018-02-27T20:02:29.026Z,-6.80
2018-02-27T20:04:56.659Z,-6.90
2018-02-27T20:07:24.273Z,-7.10
2018-02-27T20:09:52.619Z,-6.90
2018-02-27T20:12:20.251Z,-6.90
2018-02-27T20:14:47.841Z,-6.90
2018-02-27T20:17:15.467Z,-7.20
2018-02-27T20:19:43.037Z,-7.00
2018-02-27T20:22:10.672Z,-7.10
2018-02-27T20:24:38.338Z,-7.00
2018-02-27T20:27:05.956Z,-7.00
2018-02-27T20:29:33.544Z,-6.90
2018-02-27T20:32:01.225Z,-7.20
2018-02-27T20:34:32.566Z,-7.00
2018-02-27T20:37:00.127Z,-6.90
2018-02-27T20:39:27.747Z,-6.90
2018-02-27T20:41:56.104Z,-7.10
2018-02-27T20:44:23.718Z,-7.10
2018-02-27T20:46:51.305Z,-6.90
2018-02-27T20:49:18.910Z,-6.90
2018-02-27T20:51:47.308Z,-7.10
2018-02-27T20:54:14.909Z,-7.20
2018-02-27T20:56:42.509Z,-7.20
2018-02-27T20:59:10.899Z,-7.30
2018-02-27T21:01:38.487Z,-7.30
2018-02-27T21:04:06.092Z,-7.30
2018-02-27T21:06:34.423Z,-7.30
2018-02-27T21:09:02.060Z,-7.30
2018-02-27T21:11:29.643Z,-7.30
2018-02-27T21:13:57.267Z,-7.30
2018-02-27T21:16:24.851Z,-7.20
2018-02-27T21:18:52.445Z,-7.20
2018-02-27T21:21:20.087Z,-7.20
2018-02-27T21:23:47.660Z,-7.20
2018-02-27T21:26:15.285Z,-7.20
2018-02-27T21:28:42.887Z,-7.10
2018-02-27T21:31:10.541Z,-7.30
2018-02-27T21:33:38.112Z,-7.50
2018-02-27T21:36:05.750Z,-7.30
2018-02-27T21:38:33.404Z,-7.40
2018-02-27T21:41:01.824Z,-7.30
2018-02-27T21:43:30.194Z,-7.20
2018-02-27T21:45:58.548Z,-7.20
2018-02-27T21:48:26.160Z,-7.20
2018-02-27T21:50:53.747Z,-7.30
2018-02-27T21:53:21.349Z,-7.30
2018-02-27T21:55:48.928Z,-7.30
2018-02-27T21:58:17.442Z,-7.30
2018-02-27T22:00:45.029Z,-7.30
2018-02-27T22:03:12.655Z,-7.40
2018-02-27T22:05:40.291Z,-7.40
2018-02-27T22:08:08.183Z,-7.30
2018-02-27T22:10:35.793Z,-7.30
2018-02-27T22:13:03.379Z,-7.30
2018-02-27T22:15:30.977Z,-7.40
2018-02-27T22:17:58.782Z,-7.40
2018-02-27T22:20:27.174Z,-7.50
2018-02-27T22:22:54.810Z,-7.50
2018-02-27T22:25:22.399Z,-7.50
2018-02-27T22:27:49.987Z,-7.50
2018-02-27T22:30:17.576Z,-7.50
2018-02-27T22:32:45.275Z,-7.60
2018-02-27T22:35:13.622Z,-7.70
2018-02-27T22:37:41.238Z,-7.70
2018-02-27T22:40:08.811Z,-7.70
2018-02-27T22:42:36.722Z,-7.70
2018-02-27T22:45:05.228Z,-7.80
2018-02-27T22:47:33.507Z,-7.80
2018-02-27T22:50:01.167Z,-7.80
2018-02-27T22:52:28.795Z,-7.70
2018-02-27T22:54:57.140Z,-7.80
2018-02-27T22:57:25.007Z,-7.80
2018-02-27T22:59:53.027Z,-7.80
2018-02-27T23:02:20.714Z,-7.80
2018-02-27T23:04:48.355Z,-7.90
2018-02-27T23:07:16.055Z,-7.90
2018-02-27T23:09:45.020Z,-7.90
2018-02-27T23:12:12.672Z,-8.00
2018-02-27T23:14:40.261Z,-7.90
2018-02-27T23:17:08.012Z,-7.90
2018-02-27T23:19:35.576Z,-7.90
2018-02-27T23:22:03.147Z,-8.00
2018-02-27T23:24:38.235Z,-8.00
2018-02-27T23:27:07.739Z,-8.00
2018-02-27T23:29:36.306Z,-8.00
2018-02-27T23:32:05.718Z,-8.20
2018-02-27T23:34:33.714Z,-8.20
2018-02-27T23:37:02.011Z,-8.20
2018-02-27T23:39:29.619Z,-8.20
2018-02-27T23:41:57.190Z,-8.30
2018-02-27T23:44:24.772Z,-8.30
2018-02-27T23:46:52.530Z,-8.30
2018-02-27T23:49:20.979Z,-8.30
2018-02-27T23:51:48.652Z,-8.40
2018-02-27T23:54:16.272Z,-8.40
2018-02-27T23:56:43.838Z,-8.40
2018-02-27T23:59:12.198Z,-8.40
